Terminal Aerodrome Forecast
Issued by NWS Charleston, WV

Current Version | Previous Version | Text Only | Print | Product List | Glossary Off
Versions: 1 2 3 4 5 6 7 8 9 10 11 12 13 14 15 16 17 18 19 20 21 22 23 24 25 26 27 28 29 30 31

000
FTUS41 KRLX 210500
TAFEKN
TAF
KEKN 210534Z 2106/2206 00000KT 3SM BR VCSH FEW001 SCT040
     FM210800 00000KT 1/2SM FG OVC001
     FM211230 00000KT 3SM BR BKN001
     FM211400 VRB03KT P6SM FEW003 SCT050
     FM212000 14004KT P6SM VCSH BKN040
     FM220300 00000KT 4SM BR SCT050
     FM220400 00000KT 2SM BR SCT060=

USA.gov is the U.S. government's official web portal to all federal, state and local government web resources and services.